Conceicao de Macabu, Brazil
Current Conditions -  °F | °C
As of 4:00 PM on Sunday 23 Nov 2014 (Local Time) from SBME Reporting Station
Light Rain Light Rain  
Wind Chill: 79°   Ceiling: 8000
Heat Index: 82°   Visibility: 4mi
Dew Point: 73°   Wind: 3mph
Humidity: 83%   Direction: 150°SSE
Pressure: 29.85"   Gusts: NA
Location:  22.09°S, 41.87°W
Report Text: SBME 231800Z 15003KT 7000 -RA SCT020 BKN080 26/23 Q1011
Loading
Personal Weather Stations






























Interactive Weather Map New forecast layout! Learn more

10-Day Weather Forecast

Advertisements
Track Severe Weather on mobile